Cleveland, North Carolina
Current Conditions -  °F | °C
As of 11:15 PM on Monday 22 Dec 2014 (Local Time) from KRUQ Reporting Station
Light Rain Light Rain  
Wind Chill: 31°   Ceiling: 300
Heat Index: 36°   Visibility: 4mi
Dew Point: 35°   Wind: 6mph
Humidity: 99%   Direction: 30°NNE
Pressure: 30.03"   Gusts: NA
Location:  35.73°N, 80.68°W
Report Text: KRUQ 230415Z AUTO 03005KT 4SM -RA OVC003 02/02 A3003 RMK AO2 P0003 T00200019
Loading
Personal Weather Stations






























Interactive Weather Map New forecast layout! Learn more

10-Day Weather Forecast

Advertisements
Track Severe Weather on mobile